PDT5901 KCLT-KERI
Flight info
| Callsign | PDT5901 |
|---|---|
| Flight time | 1h 16m |
| Altitude | 33000 |
| Route | KRITR6 FILDS ROCKA EWC |
| Aircraft | E145/M-SDFGIRW/S |
Departure
| Time | 2026-04-25 19:06 |
|---|---|
| Airport | Charlotte Douglas International Airport (KCLT) |
Arrival
| Time | 2026-04-25 20:22 |
|---|---|
| Airport | Erie International Tom Ridge Field (KERI) |
| Time | Latitude | Longitude | Altitude | Speed | Heading |
|---|---|---|---|---|---|
| 2026-04-25 18:45 | 35.22568 | -80.93968 | 730 ft | 0 kts | 246° |
| 2026-04-25 18:50 | 35.22568 | -80.93969 | 730 ft | 0 kts | 246° |
| 2026-04-25 18:51 | 35.22574 | -80.93953 | 730 ft | 2 kts | 246° |
| 2026-04-25 18:51 | 35.22578 | -80.93941 | 730 ft | 2 kts | 246° |
| 2026-04-25 18:51 | 35.22584 | -80.93926 | 730 ft | 2 kts | 230° |
| 2026-04-25 18:51 | 35.22596 | -80.93915 | 731 ft | 2 kts | 198° |
| 2026-04-25 18:52 | 35.22608 | -80.93913 | 731 ft | 1 kts | 176° |
| 2026-04-25 18:52 | 35.22609 | -80.93913 | 731 ft | 0 kts | 176° |
| 2026-04-25 18:55 | 35.22608 | -80.93913 | 731 ft | 0 kts | 175° |
| 2026-04-25 18:55 | 35.22596 | -80.93912 | 731 ft | 3 kts | 176° |
| 2026-04-25 18:55 | 35.22553 | -80.93909 | 731 ft | 7 kts | 177° |
| 2026-04-25 18:56 | 35.22500 | -80.93894 | 731 ft | 8 kts | 145° |
| 2026-04-25 18:56 | 35.22451 | -80.93849 | 732 ft | 8 kts | 154° |
| 2026-04-25 18:56 | 35.22398 | -80.93821 | 732 ft | 8 kts | 109° |
| 2026-04-25 18:56 | 35.22394 | -80.93750 | 734 ft | 7 kts | 127° |
| 2026-04-25 18:57 | 35.22339 | -80.93739 | 734 ft | 8 kts | 176° |
| 2026-04-25 18:57 | 35.22273 | -80.93734 | 734 ft | 10 kts | 175° |
| 2026-04-25 18:57 | 35.22198 | -80.93727 | 734 ft | 11 kts | 176° |
| 2026-04-25 18:57 | 35.22142 | -80.93722 | 734 ft | 13 kts | 175° |
| 2026-04-25 18:58 | 35.22008 | -80.93710 | 732 ft | 9 kts | 176° |
| 2026-04-25 18:58 | 35.21886 | -80.93838 | 729 ft | 14 kts | 229° |
| 2026-04-25 18:58 | 35.21812 | -80.93938 | 727 ft | 17 kts | 227° |
| 2026-04-25 18:59 | 35.21627 | -80.94189 | 718 ft | 22 kts | 229° |
| 2026-04-25 18:59 | 35.21420 | -80.94477 | 708 ft | 16 kts | 229° |
| 2026-04-25 19:00 | 35.21290 | -80.94762 | 703 ft | 21 kts | 242° |
| 2026-04-25 19:00 | 35.21200 | -80.94901 | 703 ft | 17 kts | 238° |
| 2026-04-25 19:01 | 35.21321 | -80.94994 | 707 ft | 12 kts | 355° |
| 2026-04-25 19:01 | 35.21410 | -80.95001 | 708 ft | 13 kts | 356° |
| 2026-04-25 19:01 | 35.21503 | -80.95009 | 710 ft | 13 kts | 355° |
| 2026-04-25 19:01 | 35.21596 | -80.95017 | 712 ft | 13 kts | 355° |
| 2026-04-25 19:02 | 35.21817 | -80.95036 | 719 ft | 20 kts | 355° |
| 2026-04-25 19:02 | 35.21966 | -80.95049 | 722 ft | 21 kts | 355° |
| 2026-04-25 19:02 | 35.22113 | -80.95063 | 725 ft | 21 kts | 356° |
| 2026-04-25 19:03 | 35.22304 | -80.95079 | 730 ft | 10 kts | 351° |
| 2026-04-25 19:03 | 35.22336 | -80.95168 | 732 ft | 9 kts | 267° |
| 2026-04-25 19:03 | 35.22326 | -80.95252 | 732 ft | 10 kts | 237° |
| 2026-04-25 19:04 | 35.22273 | -80.95274 | 730 ft | 0 kts | 175° |
| 2026-04-25 19:05 | 35.22202 | -80.95267 | 728 ft | 36 kts | 176° |
| 2026-04-25 19:05 | 35.20745 | -80.95132 | 764 ft | 151 kts | 175° |
| 2026-04-25 19:05 | 35.19682 | -80.94965 | 1243 ft | 160 kts | 176° |
| 2026-04-25 19:06 | 35.18521 | -80.94790 | 1541 ft | 177 kts | 176° |
| 2026-04-25 19:06 | 35.15831 | -80.94379 | 2288 ft | 211 kts | 175° |
| 2026-04-25 19:06 | 35.14364 | -80.94343 | 2884 ft | 212 kts | 197° |
| 2026-04-25 19:07 | 35.12301 | -80.96862 | 3719 ft | 235 kts | 253° |
| 2026-04-25 19:07 | 35.12030 | -80.98907 | 4130 ft | 249 kts | 262° |
| 2026-04-25 19:08 | 35.11961 | -81.03151 | 5335 ft | 259 kts | 286° |
| 2026-04-25 19:08 | 35.12978 | -81.04986 | 5883 ft | 270 kts | 317° |
| 2026-04-25 19:09 | 35.18446 | -81.04844 | 7613 ft | 286 kts | 13° |
| 2026-04-25 19:09 | 35.19747 | -81.04508 | 7980 ft | 287 kts | 9° |
| 2026-04-25 19:09 | 35.24365 | -81.03465 | 9312 ft | 292 kts | 9° |
| 2026-04-25 19:10 | 35.26367 | -81.03027 | 9877 ft | 293 kts | 9° |
| 2026-04-25 19:10 | 35.28367 | -81.02588 | 10452 ft | 294 kts | 8° |
| 2026-04-25 19:10 | 35.30439 | -81.02135 | 10800 ft | 304 kts | 8° |
| 2026-04-25 19:10 | 35.32545 | -81.01672 | 11182 ft | 311 kts | 8° |
| 2026-04-25 19:11 | 35.34703 | -81.01199 | 11529 ft | 319 kts | 8° |
| 2026-04-25 19:11 | 35.36908 | -81.00716 | 11843 ft | 328 kts | 8° |
| 2026-04-25 19:11 | 35.39206 | -81.00211 | 12191 ft | 334 kts | 8° |
| 2026-04-25 19:11 | 35.41497 | -80.99708 | 12675 ft | 335 kts | 8° |
| 2026-04-25 19:12 | 35.43766 | -80.99208 | 13151 ft | 336 kts | 8° |
| 2026-04-25 19:12 | 35.46098 | -80.98695 | 13567 ft | 339 kts | 8° |
| 2026-04-25 19:12 | 35.48412 | -80.98186 | 14025 ft | 340 kts | 8° |
| 2026-04-25 19:12 | 35.50751 | -80.97671 | 14446 ft | 342 kts | 8° |
| 2026-04-25 19:13 | 35.53111 | -80.97150 | 14872 ft | 344 kts | 7° |
| 2026-04-25 19:13 | 35.55455 | -80.96634 | 15264 ft | 346 kts | 7° |
| 2026-04-25 19:13 | 35.57856 | -80.96107 | 15668 ft | 347 kts | 7° |
| 2026-04-25 19:13 | 35.60236 | -80.95763 | 16026 ft | 351 kts | 9° |
| 2026-04-25 19:14 | 35.62527 | -80.94670 | 16346 ft | 357 kts | 21° |
| 2026-04-25 19:14 | 35.64123 | -80.94036 | 16629 ft | 355 kts | 12° |
| 2026-04-25 19:14 | 35.67306 | -80.92975 | 17114 ft | 357 kts | 12° |
| 2026-04-25 19:14 | 35.69720 | -80.92264 | 17452 ft | 357 kts | 6° |
| 2026-04-25 19:15 | 35.72171 | -80.91791 | 17890 ft | 356 kts | 6° |
| 2026-04-25 19:15 | 35.74631 | -80.91305 | 18282 ft | 357 kts | 6° |
| 2026-04-25 19:15 | 35.77061 | -80.90823 | 18717 ft | 356 kts | 6° |
| 2026-04-25 19:15 | 35.79532 | -80.90334 | 19088 ft | 358 kts | 6° |
| 2026-04-25 19:16 | 35.81975 | -80.89849 | 19504 ft | 358 kts | 6° |
| 2026-04-25 19:16 | 35.84454 | -80.89356 | 19888 ft | 359 kts | 5° |
| 2026-04-25 19:16 | 35.86926 | -80.88866 | 20299 ft | 359 kts | 6° |
| 2026-04-25 19:16 | 35.89389 | -80.88376 | 20720 ft | 358 kts | 5° |
| 2026-04-25 19:17 | 35.91831 | -80.87890 | 21084 ft | 359 kts | 5° |
| 2026-04-25 19:17 | 35.94304 | -80.87399 | 21446 ft | 360 kts | 5° |
| 2026-04-25 19:17 | 35.96775 | -80.86906 | 21841 ft | 360 kts | 5° |
| 2026-04-25 19:17 | 35.99259 | -80.86410 | 22180 ft | 362 kts | 5° |
| 2026-04-25 19:18 | 36.01749 | -80.85915 | 22591 ft | 361 kts | 5° |
| 2026-04-25 19:18 | 36.04206 | -80.85424 | 22965 ft | 361 kts | 5° |
| 2026-04-25 19:18 | 36.06682 | -80.84929 | 23407 ft | 359 kts | 5° |
| 2026-04-25 19:18 | 36.09159 | -80.84435 | 23790 ft | 359 kts | 5° |
| 2026-04-25 19:19 | 36.11611 | -80.83944 | 24143 ft | 360 kts | 5° |
| 2026-04-25 19:19 | 36.14094 | -80.83447 | 24569 ft | 358 kts | 5° |
| 2026-04-25 19:19 | 36.16550 | -80.82955 | 24965 ft | 357 kts | 5° |
| 2026-04-25 19:19 | 36.18206 | -80.82625 | 25176 ft | 358 kts | 5° |
| 2026-04-25 19:20 | 36.20657 | -80.82133 | 25497 ft | 359 kts | 4° |
| 2026-04-25 19:20 | 36.23943 | -80.81474 | 25997 ft | 358 kts | 4° |
| 2026-04-25 19:20 | 36.26411 | -80.80979 | 26361 ft | 357 kts | 4° |
| 2026-04-25 19:20 | 36.28834 | -80.80492 | 26730 ft | 357 kts | 4° |
| 2026-04-25 19:21 | 36.31308 | -80.79995 | 27090 ft | 356 kts | 4° |
| 2026-04-25 19:21 | 36.36182 | -80.79015 | 27742 ft | 357 kts | 4° |
| 2026-04-25 19:21 | 36.38630 | -80.78521 | 28139 ft | 354 kts | 3° |
| 2026-04-25 19:22 | 36.41043 | -80.78036 | 28446 ft | 355 kts | 4° |
| 2026-04-25 19:22 | 36.43481 | -80.77544 | 28764 ft | 355 kts | 3° |
| 2026-04-25 19:22 | 36.48363 | -80.76559 | 29409 ft | 354 kts | 3° |
| 2026-04-25 19:23 | 36.50800 | -80.76067 | 29735 ft | 353 kts | 3° |
| 2026-04-25 19:23 | 36.55642 | -80.75087 | 30354 ft | 353 kts | 3° |
| 2026-04-25 19:23 | 36.58085 | -80.74593 | 30632 ft | 354 kts | 3° |
| 2026-04-25 19:24 | 36.60501 | -80.74120 | 30913 ft | 355 kts | 6° |
| 2026-04-25 19:24 | 36.62923 | -80.73484 | 31247 ft | 354 kts | 5° |
| 2026-04-25 19:24 | 36.67745 | -80.72303 | 31897 ft | 351 kts | 4° |
| 2026-04-25 19:25 | 36.72534 | -80.71150 | 32482 ft | 350 kts | 4° |
| 2026-04-25 19:25 | 36.74911 | -80.70579 | 32750 ft | 350 kts | 4° |
| 2026-04-25 19:25 | 36.77340 | -80.69995 | 32913 ft | 354 kts | 4° |
| 2026-04-25 19:26 | 36.82224 | -80.68819 | 32923 ft | 363 kts | 4° |
| 2026-04-25 19:26 | 36.87275 | -80.67601 | 32922 ft | 372 kts | 4° |
| 2026-04-25 19:27 | 36.91552 | -80.66569 | 32924 ft | 379 kts | 4° |
| 2026-04-25 19:27 | 36.97687 | -80.65086 | 32911 ft | 389 kts | 4° |
| 2026-04-25 19:28 | 37.03056 | -80.63786 | 32918 ft | 396 kts | 5° |
| 2026-04-25 19:28 | 37.08505 | -80.62465 | 32927 ft | 403 kts | 5° |
| 2026-04-25 19:29 | 37.14085 | -80.61109 | 32926 ft | 409 kts | 5° |
| 2026-04-25 19:29 | 37.19696 | -80.59745 | 32930 ft | 414 kts | 5° |
| 2026-04-25 19:30 | 37.25382 | -80.58360 | 32934 ft | 419 kts | 5° |
| 2026-04-25 19:30 | 37.31129 | -80.56958 | 32931 ft | 423 kts | 5° |
| 2026-04-25 19:31 | 37.36942 | -80.55537 | 32919 ft | 427 kts | 5° |
| 2026-04-25 19:31 | 37.42789 | -80.54107 | 32915 ft | 431 kts | 5° |
| 2026-04-25 19:32 | 37.48692 | -80.52660 | 32915 ft | 435 kts | 5° |
| 2026-04-25 19:32 | 37.53644 | -80.51445 | 32922 ft | 437 kts | 5° |
| 2026-04-25 19:33 | 37.60673 | -80.49717 | 32916 ft | 440 kts | 5° |
| 2026-04-25 19:33 | 37.66682 | -80.48237 | 32924 ft | 443 kts | 5° |
| 2026-04-25 19:34 | 37.72744 | -80.46742 | 32932 ft | 445 kts | 5° |
| 2026-04-25 19:34 | 37.78851 | -80.45232 | 32931 ft | 448 kts | 5° |
| 2026-04-25 19:35 | 37.84972 | -80.43717 | 32934 ft | 450 kts | 5° |
| 2026-04-25 19:35 | 37.91127 | -80.42191 | 32937 ft | 452 kts | 6° |
| 2026-04-25 19:36 | 37.97327 | -80.40651 | 32938 ft | 453 kts | 6° |
| 2026-04-25 19:36 | 38.03523 | -80.39120 | 32939 ft | 453 kts | 4° |
| 2026-04-25 19:37 | 38.09790 | -80.38575 | 32937 ft | 449 kts | 356° |
| 2026-04-25 19:37 | 38.16040 | -80.38198 | 32921 ft | 450 kts | 356° |
| 2026-04-25 19:38 | 38.22293 | -80.37813 | 32921 ft | 451 kts | 356° |
| 2026-04-25 19:38 | 38.28602 | -80.37424 | 32904 ft | 452 kts | 356° |
| 2026-04-25 19:39 | 38.34880 | -80.37035 | 32899 ft | 453 kts | 356° |
| 2026-04-25 19:39 | 38.41183 | -80.36645 | 32901 ft | 455 kts | 356° |
| 2026-04-25 19:40 | 38.47540 | -80.36250 | 32900 ft | 455 kts | 356° |
| 2026-04-25 19:40 | 38.53862 | -80.35857 | 32891 ft | 456 kts | 356° |
| 2026-04-25 19:41 | 38.60210 | -80.35461 | 32896 ft | 457 kts | 356° |
| 2026-04-25 19:41 | 38.65518 | -80.35130 | 32899 ft | 458 kts | 356° |
| 2026-04-25 19:42 | 38.72924 | -80.34668 | 32887 ft | 459 kts | 357° |
| 2026-04-25 19:42 | 38.79320 | -80.34267 | 32881 ft | 459 kts | 357° |
| 2026-04-25 19:43 | 38.85701 | -80.33868 | 32876 ft | 459 kts | 356° |
| 2026-04-25 19:43 | 38.92080 | -80.33466 | 32880 ft | 460 kts | 357° |
| 2026-04-25 19:44 | 38.98470 | -80.33064 | 32881 ft | 460 kts | 356° |
| 2026-04-25 19:44 | 39.04872 | -80.32661 | 32886 ft | 461 kts | 357° |
| 2026-04-25 19:45 | 39.11285 | -80.32256 | 32886 ft | 461 kts | 357° |
| 2026-04-25 19:45 | 39.17669 | -80.31851 | 32881 ft | 461 kts | 357° |
| 2026-04-25 19:46 | 39.24099 | -80.31444 | 32879 ft | 461 kts | 357° |
| 2026-04-25 19:46 | 39.30512 | -80.31036 | 32885 ft | 461 kts | 357° |
| 2026-04-25 19:47 | 39.36932 | -80.30627 | 32878 ft | 461 kts | 357° |
| 2026-04-25 19:47 | 39.43338 | -80.30219 | 32879 ft | 461 kts | 357° |
| 2026-04-25 19:48 | 39.49709 | -80.29813 | 32875 ft | 462 kts | 357° |
| 2026-04-25 19:48 | 39.56125 | -80.29401 | 32876 ft | 462 kts | 356° |
| 2026-04-25 19:49 | 39.61480 | -80.29059 | 32872 ft | 462 kts | 356° |
| 2026-04-25 19:49 | 39.69002 | -80.28576 | 32868 ft | 463 kts | 357° |
| 2026-04-25 19:50 | 39.78611 | -80.27956 | 32864 ft | 464 kts | 357° |
| 2026-04-25 19:51 | 39.85077 | -80.27539 | 32863 ft | 464 kts | 357° |
| 2026-04-25 19:51 | 39.91523 | -80.27123 | 32866 ft | 464 kts | 357° |
| 2026-04-25 19:52 | 39.97981 | -80.26704 | 32868 ft | 464 kts | 357° |
| 2026-04-25 19:52 | 40.04407 | -80.26287 | 32881 ft | 465 kts | 357° |
| 2026-04-25 19:53 | 40.10874 | -80.25867 | 32891 ft | 465 kts | 357° |
| 2026-04-25 19:53 | 40.17343 | -80.25446 | 32882 ft | 465 kts | 357° |
| 2026-04-25 19:54 | 40.23815 | -80.25023 | 32877 ft | 465 kts | 357° |
| 2026-04-25 19:54 | 40.30238 | -80.24603 | 32880 ft | 465 kts | 357° |
| 2026-04-25 19:55 | 40.36692 | -80.24180 | 32874 ft | 466 kts | 357° |
| 2026-04-25 19:55 | 40.43171 | -80.23754 | 32874 ft | 466 kts | 356° |
| 2026-04-25 19:56 | 40.49661 | -80.23328 | 32874 ft | 466 kts | 357° |
| 2026-04-25 19:56 | 40.56101 | -80.22903 | 32879 ft | 466 kts | 357° |
| 2026-04-25 19:57 | 40.62577 | -80.22476 | 32888 ft | 466 kts | 357° |
| 2026-04-25 19:57 | 40.69074 | -80.22046 | 32894 ft | 466 kts | 357° |
| 2026-04-25 19:58 | 40.75547 | -80.21616 | 32893 ft | 467 kts | 357° |
| 2026-04-25 19:58 | 40.82033 | -80.21236 | 32897 ft | 464 kts | 353° |
| 2026-04-25 19:59 | 40.88334 | -80.22140 | 32894 ft | 457 kts | 346° |
| 2026-04-25 19:59 | 40.94662 | -80.23231 | 32897 ft | 458 kts | 346° |
| 2026-04-25 20:00 | 41.00982 | -80.24314 | 32896 ft | 459 kts | 346° |
| 2026-04-25 20:00 | 41.07299 | -80.25399 | 32799 ft | 457 kts | 346° |
| 2026-04-25 20:00 | 41.10425 | -80.25932 | 32256 ft | 445 kts | 346° |
| 2026-04-25 20:01 | 41.16433 | -80.26968 | 30871 ft | 427 kts | 346° |
| 2026-04-25 20:01 | 41.19329 | -80.27467 | 30196 ft | 419 kts | 346° |
| 2026-04-25 20:01 | 41.22215 | -80.27965 | 29552 ft | 412 kts | 346° |
| 2026-04-25 20:02 | 41.25017 | -80.28449 | 28930 ft | 405 kts | 346° |
| 2026-04-25 20:02 | 41.27763 | -80.28925 | 28224 ft | 400 kts | 346° |
| 2026-04-25 20:02 | 41.30519 | -80.29401 | 27458 ft | 396 kts | 346° |
| 2026-04-25 20:02 | 41.33191 | -80.29862 | 26599 ft | 379 kts | 347° |
| 2026-04-25 20:03 | 41.35745 | -80.30304 | 25709 ft | 365 kts | 347° |
| 2026-04-25 20:03 | 41.38190 | -80.30722 | 24835 ft | 352 kts | 348° |
| 2026-04-25 20:03 | 41.40574 | -80.31119 | 23979 ft | 341 kts | 348° |
| 2026-04-25 20:03 | 41.42886 | -80.31522 | 23114 ft | 330 kts | 348° |
| 2026-04-25 20:04 | 41.45124 | -80.31937 | 22240 ft | 321 kts | 348° |
| 2026-04-25 20:04 | 41.47268 | -80.32349 | 21373 ft | 313 kts | 348° |
| 2026-04-25 20:04 | 41.49392 | -80.32787 | 20494 ft | 305 kts | 348° |
| 2026-04-25 20:04 | 41.51458 | -80.33231 | 19625 ft | 298 kts | 348° |
| 2026-04-25 20:05 | 41.53444 | -80.33673 | 18905 ft | 290 kts | 348° |
| 2026-04-25 20:05 | 41.55438 | -80.34141 | 18219 ft | 294 kts | 348° |
| 2026-04-25 20:05 | 41.57469 | -80.34644 | 17447 ft | 299 kts | 348° |
| 2026-04-25 20:05 | 41.59523 | -80.35183 | 16689 ft | 301 kts | 348° |
| 2026-04-25 20:06 | 41.61535 | -80.35736 | 16045 ft | 299 kts | 348° |
| 2026-04-25 20:06 | 41.63571 | -80.36316 | 15471 ft | 293 kts | 348° |
| 2026-04-25 20:06 | 41.65517 | -80.36883 | 15217 ft | 279 kts | 348° |
| 2026-04-25 20:06 | 41.67384 | -80.37354 | 14940 ft | 266 kts | 358° |
| 2026-04-25 20:07 | 41.69147 | -80.36882 | 14582 ft | 263 kts | 17° |
| 2026-04-25 20:07 | 41.70940 | -80.36481 | 13875 ft | 265 kts | 354° |
| 2026-04-25 20:07 | 41.72649 | -80.37336 | 13175 ft | 273 kts | 328° |
| 2026-04-25 20:07 | 41.73843 | -80.39333 | 12682 ft | 282 kts | 300° |
| 2026-04-25 20:08 | 41.74170 | -80.41971 | 12203 ft | 296 kts | 273° |
| 2026-04-25 20:08 | 41.73527 | -80.44598 | 11719 ft | 311 kts | 245° |
| 2026-04-25 20:08 | 41.72099 | -80.46809 | 11222 ft | 316 kts | 232° |
| 2026-04-25 20:08 | 41.70564 | -80.48894 | 10718 ft | 313 kts | 232° |
| 2026-04-25 20:09 | 41.69042 | -80.50970 | 10218 ft | 311 kts | 232° |
| 2026-04-25 20:09 | 41.67793 | -80.53213 | 9715 ft | 296 kts | 254° |
| 2026-04-25 20:09 | 41.67442 | -80.55737 | 9182 ft | 261 kts | 283° |
| 2026-04-25 20:09 | 41.68053 | -80.57858 | 8750 ft | 239 kts | 313° |
| 2026-04-25 20:10 | 41.69183 | -80.59434 | 8290 ft | 237 kts | 319° |
| 2026-04-25 20:10 | 41.70348 | -80.60953 | 8031 ft | 232 kts | 319° |
| 2026-04-25 20:10 | 41.71506 | -80.62458 | 7770 ft | 231 kts | 319° |
| 2026-04-25 20:10 | 41.72759 | -80.63751 | 7489 ft | 227 kts | 338° |
| 2026-04-25 20:11 | 41.74311 | -80.64229 | 7068 ft | 230 kts | 350° |
| 2026-04-25 20:11 | 41.75906 | -80.64554 | 6685 ft | 232 kts | 350° |
| 2026-04-25 20:11 | 41.77496 | -80.64871 | 6308 ft | 234 kts | 351° |
| 2026-04-25 20:11 | 41.79123 | -80.64742 | 5917 ft | 239 kts | 18° |
| 2026-04-25 20:12 | 41.80499 | -80.63435 | 5556 ft | 246 kts | 41° |
| 2026-04-25 20:12 | 41.81691 | -80.61782 | 5300 ft | 242 kts | 41° |
| 2026-04-25 20:12 | 41.82856 | -80.60184 | 5092 ft | 237 kts | 41° |
| 2026-04-25 20:12 | 41.83614 | -80.59144 | 4963 ft | 234 kts | 41° |
| 2026-04-25 20:13 | 41.85134 | -80.57129 | 4677 ft | 223 kts | 32° |
| 2026-04-25 20:13 | 41.86385 | -80.55997 | 4476 ft | 217 kts | 34° |
| 2026-04-25 20:13 | 41.87515 | -80.54680 | 4265 ft | 213 kts | 40° |
| 2026-04-25 20:13 | 41.88544 | -80.53263 | 4052 ft | 210 kts | 43° |
| 2026-04-25 20:14 | 41.89497 | -80.51796 | 3859 ft | 205 kts | 46° |
| 2026-04-25 20:14 | 41.90374 | -80.50343 | 3684 ft | 194 kts | 47° |
| 2026-04-25 20:14 | 41.91180 | -80.48953 | 3468 ft | 186 kts | 48° |
| 2026-04-25 20:14 | 41.91953 | -80.47581 | 3252 ft | 179 kts | 48° |
| 2026-04-25 20:15 | 41.92679 | -80.46272 | 3032 ft | 174 kts | 49° |
| 2026-04-25 20:15 | 41.93379 | -80.44994 | 2939 ft | 162 kts | 49° |
| 2026-04-25 20:15 | 41.94014 | -80.43826 | 2933 ft | 153 kts | 49° |
| 2026-04-25 20:15 | 41.94651 | -80.42658 | 2962 ft | 157 kts | 49° |
| 2026-04-25 20:16 | 41.95313 | -80.41438 | 2959 ft | 162 kts | 49° |
| 2026-04-25 20:16 | 41.95787 | -80.40044 | 2946 ft | 170 kts | 76° |
| 2026-04-25 20:16 | 41.96008 | -80.38500 | 2934 ft | 169 kts | 63° |
| 2026-04-25 20:16 | 41.96622 | -80.37168 | 2893 ft | 165 kts | 45° |
| 2026-04-25 20:17 | 41.97393 | -80.36081 | 2802 ft | 155 kts | 39° |
| 2026-04-25 20:17 | 41.98127 | -80.35084 | 2544 ft | 149 kts | 45° |
| 2026-04-25 20:17 | 41.98810 | -80.34047 | 2187 ft | 144 kts | 44° |
| 2026-04-25 20:17 | 41.99393 | -80.33026 | 1965 ft | 132 kts | 46° |
| 2026-04-25 20:18 | 41.99989 | -80.32079 | 1614 ft | 139 kts | 46° |
| 2026-04-25 20:18 | 42.00555 | -80.31073 | 1631 ft | 136 kts | 49° |
| 2026-04-25 20:18 | 42.01069 | -80.30032 | 1678 ft | 131 kts | 52° |
| 2026-04-25 20:18 | 42.01519 | -80.28942 | 1665 ft | 138 kts | 56° |
| 2026-04-25 20:19 | 42.01973 | -80.27860 | 1751 ft | 130 kts | 47° |
| 2026-04-25 20:19 | 42.02621 | -80.27003 | 1785 ft | 130 kts | 37° |
| 2026-04-25 20:19 | 42.03292 | -80.26207 | 1838 ft | 132 kts | 41° |
| 2026-04-25 20:19 | 42.03869 | -80.25206 | 1795 ft | 135 kts | 52° |
| 2026-04-25 20:20 | 42.04364 | -80.24178 | 1727 ft | 128 kts | 50° |
| 2026-04-25 20:20 | 42.04872 | -80.23200 | 1636 ft | 127 kts | 49° |
| 2026-04-25 20:20 | 42.05412 | -80.22221 | 1484 ft | 132 kts | 48° |
| 2026-04-25 20:20 | 42.05993 | -80.21313 | 1254 ft | 129 kts | 46° |
| 2026-04-25 20:21 | 42.06604 | -80.20441 | 1161 ft | 127 kts | 39° |
| 2026-04-25 20:21 | 42.07113 | -80.19476 | 1011 ft | 127 kts | 55° |
| 2026-04-25 20:21 | 42.07623 | -80.18510 | 855 ft | 127 kts | 49° |
| 2026-04-25 20:21 | 42.08123 | -80.17562 | 737 ft | 112 kts | 53° |
| 2026-04-25 20:22 | 42.08486 | -80.16899 | 733 ft | 63 kts | 52° |
| 2026-04-25 20:22 | 42.08625 | -80.16642 | 729 ft | 37 kts | 59° |
| 2026-04-25 20:22 | 42.08728 | -80.16537 | 728 ft | 12 kts | 325° |
| 2026-04-25 20:22 | 42.08757 | -80.16622 | 728 ft | 11 kts | 237° |
| 2026-04-25 20:23 | 42.08710 | -80.16713 | 729 ft | 12 kts | 234° |
| 2026-04-25 20:23 | 42.08652 | -80.16821 | 730 ft | 15 kts | 235° |
| 2026-04-25 20:23 | 42.08589 | -80.16939 | 731 ft | 16 kts | 235° |
| 2026-04-25 20:23 | 42.08518 | -80.17069 | 733 ft | 18 kts | 234° |
| 2026-04-25 20:24 | 42.08439 | -80.17217 | 733 ft | 20 kts | 234° |
| 2026-04-25 20:24 | 42.08353 | -80.17382 | 733 ft | 23 kts | 235° |
| 2026-04-25 20:24 | 42.08260 | -80.17564 | 734 ft | 23 kts | 234° |
| 2026-04-25 20:24 | 42.08163 | -80.17742 | 736 ft | 23 kts | 234° |
| 2026-04-25 20:25 | 42.08088 | -80.17900 | 736 ft | 17 kts | 262° |
| 2026-04-25 20:25 | 42.08091 | -80.18066 | 736 ft | 18 kts | 272° |
| 2026-04-25 20:25 | 42.08094 | -80.18224 | 736 ft | 11 kts | 271° |
| 2026-04-25 20:25 | 42.08127 | -80.18267 | 736 ft | 7 kts | 19° |
| 2026-04-25 20:26 | 42.08163 | -80.18206 | 736 ft | 7 kts | 55° |
| 2026-04-25 20:26 | 42.08194 | -80.18139 | 736 ft | 7 kts | 49° |
| 2026-04-25 20:26 | 42.08241 | -80.18121 | 736 ft | 4 kts | 9° |
| 2026-04-25 20:26 | 42.08251 | -80.18119 | 736 ft | 0 kts | 9° |